Time;durP1;ratioP1;P1;durP2;ratioP2;P2;SDS_P1;SDS_P2;PMS_P1;PMS_P2;Temp;Humidity;BMP_temperature;BMP_pressure;BME280_temperature;BME280_humidity;BME280_pressure;Samples;Min_cycle;Max_cycle;Signal;HPM_P1;HPM_P2
2023/09/08 00:06:06;;;;;;;13.47;11.90;;;14.80;99.90;;;;;;6030383;23;20659;-88
2023/09/08 00:26:24;;;;;;;14.77;12.57;;;14.60;99.90;;;;;;5647545;24;20348;-85
2023/09/08 00:52:17;;;;;;;13.77;11.77;;;14.20;99.90;;;;;;5730932;24;20361;-87
2023/09/08 01:17:51;;;;;;;13.93;12.47;;;14.20;99.90;;;;;;5630665;24;20529;-85
2023/09/08 01:22:11;;;;;;;15.87;13.10;;;14.30;99.90;;;;;;5516856;24;21165;-84
2023/09/08 03:08:45;;;;;;;15.50;13.87;;;14.30;99.90;;;;;;5648792;24;20202;-85
2023/09/08 03:34:03;;;;;;;17.40;14.10;;;14.20;99.90;;;;;;5807130;23;20656;-85
2023/09/08 03:59:59;;;;;;;20.87;15.80;;;13.90;99.90;;;;;;5792706;24;20203;-84
2023/09/08 04:29:51;;;;;;;21.20;15.97;;;14.10;99.90;;;;;;5732984;24;20749;-85
2023/09/08 04:50:35;;;;;;;22.30;17.00;;;14.40;99.90;;;;;;5687604;24;20173;-87
2023/09/08 05:16:12;;;;;;;18.10;16.20;;;15.50;99.90;;;;;;5716721;24;20412;-85
2023/09/08 05:36:32;;;;;;;19.30;14.50;;;16.50;99.90;;;;;;5748147;24;20185;-84
2023/09/08 06:01:49;;;;;;;16.33;12.67;;;17.60;99.90;;;;;;5853269;23;20206;-85
2023/09/08 07:22:58;;;;;;;12.02;10.82;;;20.70;99.90;;;;;;6030173;23;20161;-82
2023/09/08 07:53:28;;;;;;;12.32;9.88;;;21.70;97.10;;;;;;6066035;23;20244;-82
2023/09/08 08:18:36;;;;;;;13.25;9.57;;;22.50;93.10;;;;;;6064442;23;20161;-83
2023/09/08 09:24:40;;;;;;;9.68;8.02;;;23.50;90.00;;;;;;5923625;23;20254;-83
2023/09/08 09:44:58;;;;;;;8.93;7.45;;;24.00;87.60;;;;;;5751643;24;20491;-84
2023/09/08 10:14:51;;;;;;;7.85;7.00;;;25.20;75.60;;;;;;5733683;24;20231;-84
2023/09/08 10:35:09;;;;;;;8.93;6.90;;;26.10;64.20;;;;;;5665975;24;21348;-81
2023/09/08 10:56:06;;;;;;;7.40;6.55;;;27.10;61.90;;;;;;5690471;24;20523;-84
2023/09/08 11:00:31;;;;;;;9.32;6.70;;;27.30;61.70;;;;;;5659446;24;20274;-83
2023/09/08 11:25:57;;;;;;;8.70;7.25;;;26.50;60.40;;;;;;5608232;24;20538;-84
2023/09/08 12:42:44;;;;;;;9.57;7.65;;;26.40;60.30;;;;;;5708899;24;20265;-85
2023/09/08 13:42:55;;;;;;;9.57;8.02;;;28.50;58.50;;;;;;5741259;24;20424;-88
2023/09/08 14:03:53;;;;;;;8.10;7.47;;;28.50;56.30;;;;;;5902309;23;20291;-85
2023/09/08 14:08:14;;;;;;;7.93;7.22;;;28.60;56.20;;;;;;5896458;23;20605;-83
2023/09/08 14:33:38;;;;;;;9.40;7.80;;;28.60;55.80;;;;;;5822746;23;20724;-86
2023/09/08 15:09:42;;;;;;;7.28;6.68;;;26.90;56.10;;;;;;5930326;23;20162;-84
2023/09/08 15:40:13;;;;;;;7.55;6.72;;;25.80;58.20;;;;;;5831580;24;20194;-88
2023/09/08 16:05:13;;;;;;;7.47;6.88;;;25.20;59.90;;;;;;5934028;23;20187;-82
2023/09/08 16:51:06;;;;;;;8.07;7.35;;;22.80;80.90;;;;;;5634363;24;20571;-85
2023/09/08 17:26:04;;;;;;;11.38;9.70;;;20.70;99.90;;;;;;5700238;24;20500;-87
2023/09/08 17:51:55;;;;;;;11.20;10.20;;;19.40;99.90;;;;;;5937093;23;20228;-86
2023/09/08 18:22:21;;;;;;;12.97;11.47;;;18.60;99.90;;;;;;5940980;23;20234;-81
2023/09/08 18:47:41;;;;;;;17.63;14.70;;;18.00;99.90;;;;;;5778552;24;20301;-86
2023/09/08 19:13:16;;;;;;;20.40;17.07;;;17.70;99.90;;;;;;5721107;24;20194;-83
2023/09/08 19:33:09;;;;;;;26.70;23.90;;;17.50;99.90;;;;;;5712943;24;20379;-85
2023/09/08 19:53:48;;;;;;;34.07;29.53;;;17.10;99.90;;;;;;5845705;24;20175;-88
2023/09/08 20:13:53;;;;;;;44.23;33.93;;;16.60;99.90;;;;;;6011300;23;20768;-83
2023/09/08 20:39:30;;;;;;;37.30;33.30;;;16.30;99.90;;;;;;5936430;23;20170;-84
2023/09/08 21:09:14;;;;;;;44.53;36.77;;;16.10;99.90;;;;;;5833847;23;20558;-82
2023/09/08 21:29:30;;;;;;;44.60;36.40;;;15.90;99.90;;;;;;5707084;24;20596;-83
2023/09/08 21:55:16;;;;;;;48.47;37.93;;;15.40;99.90;;;;;;5792604;24;20536;-83
2023/09/08 22:20:55;;;;;;;50.23;39.50;;;15.20;99.90;;;;;;5924890;23;20177;-83
2023/09/08 22:46:19;;;;;;;49.60;41.97;;;15.00;99.90;;;;;;5993811;23;20173;-83
2023/09/08 22:50:39;;;;;;;48.57;41.23;;;14.90;99.90;;;;;;5947500;23;20284;-85
2023/09/08 23:21:43;;;;;;;43.83;36.10;;;14.70;99.90;;;;;;5881213;23;20831;-85
2023/09/08 23:51:31;;;;;;;40.63;35.27;;;14.40;99.90;;;;;;5598817;24;20542;-83
